Svartfoss — V2PR3 — position and weather

sailwx.info

Track history (hours):
 
Tides and Currents Weather Stations Pressure Air Temp Water Temp Dewpoint Dewpoint Depression Visibility Wind Speed Wind Dir Waves Ship Positions

Svartfoss

Last reported at 2017-Oct-19 11:30 UTC. Time now 2018-Feb-24 09:57 UTC.
Position N 69°38' E 018°57'.
Warning: this ship's position is months out of date.

MMSI: 304882000.

Date/timePositionNaut miles runAvg speedWind from/ knotsBaromVisibWave heightAir tempDewpointWater temp
2017-Oct-19 11:30N 69°38' E 018°57'0 0.1
2017-Oct-19 11:28N 69°38' E 018°57'0 0.0
2017-Oct-19 11:00N 69°38' E 018°57'0 0.0
2017-Oct-19 10:30N 69°38' E 018°57'0 0.0
2017-Oct-19 09:59N 69°38' E 018°57'0 0.0
2017-Oct-19 09:30N 69°38' E 018°57'0 0.0
2017-Oct-19 09:00N 69°38' E 018°57'0 0.0
2017-Oct-19 08:30N 69°38' E 018°57'0 0.0
2017-Oct-19 07:59N 69°38' E 018°57'0 1.0
2017-Oct-19 07:30N 69°38' E 018°57'613.1
2017-Oct-19 07:00N 69°44' E 019°03'714.2
2017-Oct-19 06:30N 69°48' E 019°20'714.8
2017-Oct-19 06:00N 69°55' E 019°30'815.1
2017-Oct-19 05:30N 70°01' E 019°45'815.4
2017-Oct-19 05:00N 70°05' E 020°05'4 7.6
2017-Oct-19 04:30N 70°08' E 019°59'0 0.0
2017-Oct-19 04:00N 70°08' E 019°59'0 0.0
2017-Oct-19 03:31N 70°08' E 019°59'4 7.1
2017-Oct-19 03:00N 70°09' E 020°09'814.9
2017-Oct-19 02:30N 70°14' E 020°26'815.0
2017-Oct-19 02:00N 70°17' E 020°46'815.2
2017-Oct-19 01:30N 70°20' E 021°06'815.1
2017-Oct-19 01:00N 70°24' E 021°26'815.1
2017-Oct-19 00:30N 70°26' E 021°48'815.4
2017-Oct-19 00:00N 70°27' E 022°10'715.0
2017-Oct-18 23:30N 70°29' E 022°32'714.3
2017-Oct-18 23:00N 70°31' E 022°53'713.9
2017-Oct-18 22:30N 70°35' E 023°10'713.7
2017-Oct-18 22:00N 70°38' E 023°27'4 8.5
2017-Oct-18 21:30N 70°38' E 023°40'0 0.0
2017-Oct-18 21:00N 70°38' E 023°40'0 0.0
2017-Oct-18 20:30N 70°38' E 023°40'0 0.0
2017-Oct-18 20:00N 70°38' E 023°40'1 2.3
2017-Oct-18 19:30N 70°37' E 023°38'0 1.0
2017-Oct-18 19:00N 70°38' E 023°38'0 0.0
2017-Oct-18 18:30N 70°38' E 023°38'3 6.6
2017-Oct-18 18:00N 70°41' E 023°34'815.5
2017-Oct-18 17:30N 70°47' E 023°45'815.8
2017-Oct-18 17:00N 70°52' E 024°04'815.8
2017-Oct-18 16:30N 70°58' E 024°21'714.5
2017-Oct-18 16:00N 71°01' E 024°40'815.7
2017-Oct-18 15:30N 70°59' E 025°04'815.3
2017-Oct-18 15:00N 70°58' E 025°27'1514.7
2017-Oct-18 14:00N 70°59' E 026°12'815.7
2017-Oct-18 13:30N 71°02' E 026°34'714.9
2017-Oct-18 13:00N 71°04' E 026°56'714.6
2017-Oct-18 12:29N 71°07' E 027°18'714.0
2017-Oct-18 12:00N 71°09' E 027°38'713.9
2017-Oct-18 11:30N 71°08' E 027°59'713.8
2017-Oct-18 11:00N 71°07' E 028°20'714.3
2017-Oct-18 10:30N 71°03' E 028°38'815.0
2017-Oct-18 10:00N 70°58' E 028°57'815.3
2017-Oct-18 09:30N 70°53' E 029°15'815.3
2017-Oct-18 08:59N 70°48' E 029°33'715.2
2017-Oct-18 08:30N 70°44' E 029°50'611.9
2017-Oct-18 08:00N 70°38' E 029°44'0 0.0
2017-Oct-18 07:30N 70°38' E 029°44'1 1.8
2017-Oct-18 07:01N 70°38' E 029°46'714.4
2017-Oct-18 06:30N 70°43' E 030°02'815.7
2017-Oct-18 06:00N 70°39' E 030°22'816.0
2017-Oct-18 05:30N 70°34' E 030°39'815.7
2017-Oct-18 05:00N 70°28' E 030°56'815.1
2017-Oct-18 04:30N 70°21' E 031°06'714.2
2017-Oct-18 04:00N 70°14' E 031°00'714.4
2017-Oct-18 03:31N 70°09' E 030°47'714.5
2017-Oct-18 03:01N 70°03' E 030°34'714.5
2017-Oct-18 02:30N 69°58' E 030°20'714.5
2017-Oct-18 02:00N 69°52' E 030°08'814.9
2017-Oct-18 01:30N 69°44' E 030°04'1 1.2
2017-Oct-18 01:00N 69°44' E 030°04'0 0.0
2017-Oct-18 00:30N 69°44' E 030°04'0 0.0
2017-Oct-18 00:00N 69°44' E 030°04'0 0.0
2017-Oct-17 23:30N 69°44' E 030°04'0 0.0
2017-Oct-17 23:00N 69°44' E 030°04'0 0.0
2017-Oct-17 22:30N 69°44' E 030°04'0 0.0
2017-Oct-17 22:00N 69°44' E 030°04'0 0.0
2017-Oct-17 21:29N 69°44' E 030°04'0 0.0
2017-Oct-17 21:00N 69°44' E 030°04'0 0.8
2017-Oct-17 20:29N 69°44' E 030°05'714.4
2017-Oct-17 20:00N 69°51' E 030°07'714.9
2017-Oct-17 19:30N 69°57' E 030°18'815.2
2017-Oct-17 19:00N 70°03' E 030°33'815.4
2017-Oct-17 18:30N 70°09' E 030°47'815.3
2017-Oct-17 18:00N 70°15' E 031°01'713.7
2017-Oct-17 17:30N 70°22' E 031°04'1 1.2
2017-Oct-17 17:00N 70°22' E 031°02'612.2
2017-Oct-17 16:30N 70°28' E 030°58'713.7
2017-Oct-17 16:00N 70°33' E 030°45'714.2
2017-Oct-17 15:30N 70°37' E 030°28'714.4
2017-Oct-17 15:00N 70°42' E 030°12'612.2
2017-Oct-17 14:30N 70°42' E 029°53'510.1
2017-Oct-17 14:00N 70°38' E 029°43'0 0.0
2017-Oct-17 13:30N 70°38' E 029°43'0 0.0
2017-Oct-17 13:00N 70°38' E 029°43'0 0.0
2017-Oct-17 12:30N 70°38' E 029°43'0 0.0
2017-Oct-17 12:00N 70°38' E 029°43'0 0.0
2017-Oct-17 11:30N 70°38' E 029°43'0 0.0
2017-Oct-17 11:00N 70°38' E 029°43'0 0.0
2017-Oct-17 10:30N 70°38' E 029°43'0 0.0
2017-Oct-17 10:00N 70°38' E 029°43'0 0.0
2017-Oct-17 09:30N 70°38' E 029°43'0 0.0
2017-Oct-17 09:00N 70°38' E 029°43'0 0.0
2017-Oct-17 08:30N 70°38' E 029°43'0 0.0
2017-Oct-17 08:00N 70°38' E 029°43'0 0.0
2017-Oct-17 07:30N 70°38' E 029°43'0 0.0
2017-Oct-17 07:00N 70°38' E 029°43'0 0.0
2017-Oct-17 06:31N 70°38' E 029°43'0 0.0
2017-Oct-17 05:59N 70°38' E 029°43'0 0.0
2017-Oct-17 05:30N 70°38' E 029°43'0 0.0
2017-Oct-17 05:00N 70°38' E 029°43'1 1.8
2017-Oct-17 04:30N 70°38' E 029°46'612.9
2017-Oct-17 04:00N 70°45' E 029°48'612.2
2017-Oct-17 03:30N 70°48' E 029°33'613.0
2017-Oct-17 03:00N 70°52' E 029°16'3 6.3
2017-Oct-17 02:30N 70°51' E 029°07'0 0.0
2017-Oct-17 02:00N 70°51' E 029°07'0 0.0
2017-Oct-17 01:30N 70°51' E 029°07'0 0.1
2017-Oct-17 01:00N 70°52' E 029°07'611.5
2017-Oct-17 00:30N 70°57' E 028°59'714.2
2017-Oct-17 00:00N 71°01' E 028°42'714.6
2017-Oct-16 23:30N 71°05' E 028°24'714.0
2017-Oct-16 22:59N 71°08' E 028°03'714.6
2017-Oct-16 22:30N 71°08' E 027°41'815.2
2017-Oct-16 22:00N 71°06' E 027°19'815.4
2017-Oct-16 21:30N 71°04' E 026°56'815.2
2017-Oct-16 21:00N 71°01' E 026°34'714.6
2017-Oct-16 20:30N 70°59' E 026°13'5 9.8
2017-Oct-16 20:00N 70°59' E 025°57'0 0.6
2017-Oct-16 19:30N 70°60' E 025°58'0 0.0
2017-Oct-16 19:00N 70°60' E 025°58'0 0.0
2017-Oct-16 18:30N 70°60' E 025°58'3 5.1
2017-Oct-16 18:00N 70°57' E 025°55'714.5
2017-Oct-16 17:30N 70°56' E 025°34'713.3
2017-Oct-16 17:00N 70°59' E 025°16'714.9
2017-Oct-16 16:30N 71°00' E 024°54'714.4
2017-Oct-16 16:00N 71°01' E 024°32'815.1
2017-Oct-16 15:30N 70°56' E 024°15'815.2
2017-Oct-16 15:00N 70°51' E 023°58'815.6
2017-Oct-16 14:30N 70°46' E 023°40'8 8.4
2017-Oct-16 13:30N 70°37' E 023°38'612.9
2017-Oct-16 13:00N 70°37' E 023°18'816.4
2017-Oct-16 12:30N 70°32' E 023°00'816.0
2017-Oct-16 12:01N 70°27' E 022°41'815.7
2017-Oct-16 11:30N 70°22' E 022°22'714.0
2017-Oct-16 11:00N 70°15' E 022°20'1 2.1
2017-Oct-16 10:30N 70°14' E 022°21'0 0.0
2017-Oct-16 10:00N 70°14' E 022°21'0 0.0
2017-Oct-16 09:30N 70°14' E 022°21'0 0.0
2017-Oct-16 09:00N 70°14' E 022°21'4 8.1
2017-Oct-16 08:30N 70°18' E 022°15'714.8
2017-Oct-16 08:00N 70°22' E 021°56'612.8
2017-Oct-16 07:30N 70°22' E 021°37'815.4
2017-Oct-16 07:00N 70°17' E 021°21'715.0
2017-Oct-16 06:30N 70°11' E 021°06'815.3
2017-Oct-16 06:00N 70°05' E 020°56'815.1
2017-Oct-16 05:30N 70°01' E 020°36'815.2
2017-Oct-16 05:00N 69°59' E 020°15'815.0
2017-Oct-16 04:30N 69°54' E 019°57'815.0
2017-Oct-16 04:00N 69°50' E 019°39'815.5
2017-Oct-16 03:30N 69°47' E 019°18'714.2
2017-Oct-16 03:00N 69°43' E 019°02'4 7.2
2017-Oct-16 02:30N 69°39' E 018°58'0 0.0
2017-Oct-16 02:00N 69°39' E 018°58'0 0.0
2017-Oct-16 01:30N 69°39' E 018°58'0 0.0
2017-Oct-16 01:00N 69°39' E 018°58'3 5.3
2017-Oct-16 00:30N 69°37' E 018°55'713.3
2017-Oct-16 00:00N 69°33' E 018°40'815.2
2017-Oct-15 23:29N 69°30' E 018°19'613.3
2017-Oct-15 23:00N 69°25' E 018°07'714.3
2017-Oct-15 22:30N 69°19' E 017°58'713.6
2017-Oct-15 22:00N 69°12' E 018°02'714.0
2017-Oct-15 21:30N 69°08' E 017°45'815.3
2017-Oct-15 21:00N 69°05' E 017°25'714.9
2017-Oct-15 20:30N 68°60' E 017°12'815.5
2017-Oct-15 20:00N 68°56' E 016°52'815.3
2017-Oct-15 19:30N 68°52' E 016°34'715.0
2017-Oct-15 19:00N 68°56' E 016°17'815.1
2017-Oct-15 18:30N 68°59' E 015°57'611.7
2017-Oct-15 18:00N 68°58' E 015°41'713.3
2017-Oct-15 17:29N 68°52' E 015°31'815.4
2017-Oct-15 17:00N 68°45' E 015°26'3 6.2
2017-Oct-15 16:30N 68°42' E 015°25'0 0.0
2017-Oct-15 16:00N 68°42' E 015°25'0 0.0
2017-Oct-15 15:30N 68°42' E 015°25'0 0.0
2017-Oct-15 15:00N 68°42' E 015°25'0 0.0
2017-Oct-15 14:00N 68°42' E 015°25'0 0.0
2017-Oct-15 13:30N 68°42' E 015°25'4 9.0
2017-Oct-15 13:00N 68°38' E 015°21'714.9
2017-Oct-15 12:30N 68°32' E 015°10'713.6
2017-Oct-15 12:00N 68°25' E 015°08'715.0
2017-Oct-15 11:30N 68°18' E 014°58'715.0
2017-Oct-15 11:00N 68°11' E 014°52'714.9
2017-Oct-15 10:30N 68°04' E 014°44'815.5
2017-Oct-15 10:00N 67°58' E 014°35'714.9
2017-Oct-15 09:30N 67°51' E 014°27'815.3
2017-Oct-15 09:00N 67°44' E 014°18'714.5
2017-Oct-15 08:30N 67°37' E 014°18'815.4
2017-Oct-15 08:00N 67°29' E 014°22'714.5
2017-Oct-15 07:30N 67°22' E 014°24'816.3
2017-Oct-15 07:00N 67°15' E 014°12'816.2
2017-Oct-15 06:30N 67°08' E 014°02'815.7
2017-Oct-15 06:00N 67°02' E 013°48'815.7
2017-Oct-15 05:30N 66°58' E 013°32'714.2
2017-Oct-15 05:00N 66°52' E 013°21'815.5
2017-Oct-15 04:30N 66°45' E 013°13'815.9
2017-Oct-15 04:00N 66°38' E 013°05'714.0
2017-Oct-15 03:30N 66°31' E 012°58'815.9
2017-Oct-15 03:00N 66°23' E 012°58'815.7
2017-Oct-15 02:29N 66°15' E 012°55'816.2
2017-Oct-15 02:00N 66°08' E 012°48'816.5
2017-Oct-15 01:30N 66°02' E 012°35'816.8
2017-Oct-15 01:00N 65°55' E 012°23'816.0
2017-Oct-15 00:30N 65°47' E 012°20'816.0
2017-Oct-15 00:00N 65°39' E 012°15'815.6
2017-Oct-14 23:30N 65°31' E 012°12'2 3.9
2017-Oct-14 23:00N 65°30' E 012°13'0 0.0
2017-Oct-14 22:30N 65°30' E 012°13'0 0.0
2017-Oct-14 22:00N 65°30' E 012°13'1 2.2
2017-Oct-14 21:30N 65°31' E 012°14'510.9
2017-Oct-14 21:00N 65°35' E 012°20'815.3
2017-Oct-14 20:29N 65°28' E 012°29'2 3.7
2017-Oct-14 20:00N 65°27' E 012°27'0 0.0
2017-Oct-14 19:30N 65°27' E 012°27'0 0.0
2017-Oct-14 19:00N 65°27' E 012°27'0 0.1
2017-Oct-14 18:29N 65°27' E 012°27'2 3.3
2017-Oct-14 18:00N 65°28' E 012°28'714.6
2017-Oct-14 17:30N 65°35' E 012°21'713.1
2017-Oct-14 17:00N 65°41' E 012°16'713.8
2017-Oct-14 16:30N 65°48' E 012°20'713.5
2017-Oct-14 16:00N 65°54' E 012°22'713.0
2017-Oct-14 15:30N 66°00' E 012°31'713.5
2017-Oct-14 15:00N 66°05' E 012°42'713.6
2017-Oct-14 14:30N 66°09' E 012°56'714.7
2017-Oct-14 14:00N 66°12' E 013°12'714.4
2017-Oct-14 13:30N 66°14' E 013°28'714.6
2017-Oct-14 13:00N 66°15' E 013°47'714.7
2017-Oct-14 12:30N 66°18' E 014°04'2 3.4
2017-Oct-14 12:00N 66°19' E 014°07'0 0.0
2017-Oct-14 11:30N 66°19' E 014°07'0 0.0
2017-Oct-14 11:00N 66°19' E 014°07'0 0.0
2017-Oct-14 10:30N 66°19' E 014°07'0 0.8
2017-Oct-14 10:00N 66°19' E 014°06'714.3
2017-Oct-14 09:30N 66°15' E 013°51'714.5
2017-Oct-14 09:00N 66°15' E 013°33'713.9
2017-Oct-14 08:30N 66°13' E 013°16'714.2
2017-Oct-14 08:00N 66°10' E 013°00'715.2
2017-Oct-14 07:31N 66°06' E 012°44'816.2
2017-Oct-14 07:00N 65°60' E 012°31'816.0
2017-Oct-14 06:30N 65°53' E 012°22'816.0
2017-Oct-14 06:00N 65°45' E 012°18'816.0
2017-Oct-14 05:30N 65°37' E 012°16'815.5
2017-Oct-14 05:00N 65°30' E 012°26'4 7.5
2017-Oct-14 04:28N 65°27' E 012°27'0 0.1
2017-Oct-14 03:59N 65°27' E 012°27'0 0.2
2017-Oct-14 03:30N 65°27' E 012°27'0 0.1
2017-Oct-14 02:59N 65°27' E 012°27'0 0.1
2017-Oct-14 02:29N 65°27' E 012°27'2 3.7
2017-Oct-14 02:00N 65°28' E 012°28'714.2
2017-Oct-14 01:30N 65°35' E 012°21'612.8
2017-Oct-14 01:00N 65°41' E 012°16'714.1
2017-Oct-14 00:30N 65°48' E 012°20'714.2
2017-Oct-14 00:00N 65°55' E 012°22'714.0
2017-Oct-13 23:30N 66°01' E 012°32'714.4
2017-Oct-13 23:00N 66°06' E 012°43'714.6
2017-Oct-13 22:30N 66°10' E 012°59'815.6
2017-Oct-13 22:00N 66°13' E 013°16'714.4
2017-Oct-13 21:30N 66°15' E 013°34'815.1
2017-Oct-13 20:59N 66°16' E 013°53'713.6
2017-Oct-13 20:30N 66°19' E 014°07'0 0.0
2017-Oct-13 20:00N 66°19' E 014°07'0 0.0
2017-Oct-13 19:30N 66°19' E 014°07'0 0.0
2017-Oct-13 19:00N 66°19' E 014°07'0 0.0
2017-Oct-13 18:30N 66°19' E 014°07'0 0.0
2017-Oct-13 18:00N 66°19' E 014°07'0 0.0
2017-Oct-13 17:30N 66°19' E 014°07'612.2
2017-Oct-13 17:00N 66°16' E 013°54'714.4
2017-Oct-13 16:29N 66°14' E 013°36'713.8
2017-Oct-13 16:00N 66°14' E 013°20'713.8
2017-Oct-13 15:30N 66°10' E 013°06'714.4
2017-Oct-13 15:00N 66°08' E 012°49'815.0
2017-Oct-13 14:30N 66°02' E 012°36'815.4
2017-Oct-13 14:00N 65°56' E 012°25'815.4
2017-Oct-13 13:30N 65°49' E 012°21'815.6
2017-Oct-13 13:00N 65°41' E 012°16'815.7
2017-Oct-13 12:29N 65°33' E 012°13'4 7.7
2017-Oct-13 12:00N 65°30' E 012°13'0 0.0
2017-Oct-13 11:30N 65°30' E 012°13'1 2.5
2017-Oct-13 11:00N 65°28' E 012°12'611.7
2017-Oct-13 10:30N 65°23' E 012°06'815.8
2017-Oct-13 09:59N 65°16' E 011°57'815.7
2017-Oct-13 09:30N 65°09' E 011°50'815.8
2017-Oct-13 09:00N 65°02' E 011°42'815.2
2017-Oct-13 08:30N 64°57' E 011°29'815.4
2017-Oct-13 08:00N 64°52' E 011°15'0 0.7
2017-Oct-13 07:30N 64°52' E 011°14'0 0.0
2017-Oct-13 07:00N 64°52' E 011°14'0 0.0
2017-Oct-13 06:30N 64°52' E 011°14'4 7.3
2017-Oct-13 06:00N 64°49' E 011°09'71 5.2
2017-Oct-12 16:24N 63°49' E 009°41'0 0.1
2017-Oct-12 16:00N 63°49' E 009°41'4 7.9
2017-Oct-12 15:29N 63°47' E 009°33'815.6
2017-Oct-12 15:00N 63°39' E 009°29'815.1
2017-Oct-12 14:30N 63°33' E 009°19'817.3
2017-Oct-12 14:00N 63°29' E 009°02'816.6
2017-Oct-12 13:30N 63°26' E 008°45'816.3
2017-Oct-12 13:00N 63°23' E 008°28'816.4
2017-Oct-12 12:30N 63°18' E 008°14'816.6
2017-Oct-12 12:00N 63°14' E 007°58'816.1
2017-Oct-12 11:30N 63°09' E 007°43'815.6
2017-Oct-12 11:00N 63°05' E 007°28'815.1
2017-Oct-12 10:30N 63°02' E 007°13'815.0
2017-Oct-12 10:00N 62°59' E 006°58'815.1
2017-Oct-12 09:30N 62°54' E 006°46'815.7
2017-Oct-12 09:00N 62°48' E 006°36'815.7
2017-Oct-12 08:30N 62°41' E 006°27'815.3
2017-Oct-12 08:00N 62°36' E 006°15'713.6
2017-Oct-12 07:30N 62°29' E 006°10'612.9
2017-Oct-12 07:00N 62°30' E 006°24'0 0.3
2017-Oct-12 06:30N 62°30' E 006°24'0 0.0
2017-Oct-12 06:00N 62°30' E 006°24'0 0.0
2017-Oct-12 05:30N 62°30' E 006°24'2 4.6
2017-Oct-12 05:00N 62°28' E 006°21'0 0.0
2017-Oct-12 04:30N 62°28' E 006°21'0 0.0
2017-Oct-12 04:00N 62°28' E 006°21'1 2.7
2017-Oct-12 03:29N 62°29' E 006°18'0 0.0
2017-Oct-12 03:00N 62°29' E 006°18'0 0.0
2017-Oct-12 02:30N 62°29' E 006°18'0 0.0
2017-Oct-12 02:00N 62°29' E 006°18'3 6.7
2017-Oct-12 01:30N 62°29' E 006°11'0 0.0
2017-Oct-12 01:00N 62°29' E 006°11'0 0.0
2017-Oct-12 00:30N 62°29' E 006°11'0 0.0
2017-Oct-12 00:00N 62°29' E 006°11'3 6.6
2017-Oct-11 23:30N 62°28' E 006°05'2 3.6
2017-Oct-11 23:00N 62°28' E 006°08'0 0.0
2017-Oct-11 22:30N 62°28' E 006°08'1 2.4
2017-Oct-11 22:00N 62°27' E 006°11'815.4
2017-Oct-11 21:30N 62°26' E 005°54'714.6
2017-Oct-11 21:00N 62°20' E 005°45'714.0
2017-Oct-11 20:29N 62°18' E 005°30'715.4
2017-Oct-11 20:00N 62°15' E 005°15'713.9
2017-Oct-11 19:30N 62°11' E 005°03'814.8
2017-Oct-11 19:00N 62°04' E 005°08'5 9.8
2017-Oct-11 18:30N 61°59' E 005°08'0 0.0
2017-Oct-11 18:00N 61°59' E 005°08'0 0.4
2017-Oct-11 17:30N 61°59' E 005°08'2 4.7
2017-Oct-11 17:00N 61°56' E 005°08'159 9.4
2017-Oct-11 00:00N 59°17' E 005°20'714.9
2017-Oct-10 23:30N 59°10' E 005°21'816.7
2017-Oct-10 23:01N 59°02' E 005°20'917.1
2017-Oct-10 22:31N 58°53' E 005°20'917.7
2017-Oct-10 22:01N 58°44' E 005°19'917.1
2017-Oct-10 21:31N 58°36' E 005°18'816.4
2017-Oct-10 21:00N 58°27' E 005°17'32014.6
2017-Oct-09 23:05N 53°09' E 004°32'414.5
2017-Oct-09 22:48N 53°05' E 004°30'414.4
2017-Oct-09 22:30N 53°00' E 004°29'714.6
2017-Oct-09 22:00N 52°53' E 004°30'714.8
2017-Oct-09 21:30N 52°46' E 004°30'714.8
2017-Oct-09 21:00N 52°38' E 004°30'815.2
2017-Oct-09 20:30N 52°31' E 004°30'5 9.0
2017-Oct-09 20:00N 52°28' E 004°35'1 1.3
2017-Oct-09 19:30N 52°28' E 004°36'2 4.2
2017-Oct-09 19:00N 52°28' E 004°40'0 0.4
2017-Oct-09 18:30N 52°28' E 004°40'0 0.0
2017-Oct-09 17:59N 52°28' E 004°40'0 0.0
2017-Oct-09 17:26N 52°28' E 004°40'0 0.0
2017-Oct-09 16:59N 52°28' E 004°40'0 0.0
2017-Oct-09 16:29N 52°28' E 004°40'0 0.0
2017-Oct-09 15:59N 52°28' E 004°40'0 0.0
2017-Oct-09 15:26N 52°28' E 004°40'0 0.0
2017-Oct-09 14:59N 52°28' E 004°40'0 0.0
2017-Oct-09 14:29N 52°28' E 004°40'0 0.0
2017-Oct-09 13:56N 52°28' E 004°40'0 0.0
2017-Oct-09 13:26N 52°28' E 004°40'0 0.0
2017-Oct-09 12:59N 52°28' E 004°40'0 0.0
2017-Oct-09 12:29N 52°28' E 004°40'0 0.0
2017-Oct-09 11:59N 52°28' E 004°40'  
Track history (hours):
 
Tides and Currents Weather Stations Pressure Air Temp Water Temp Dewpoint Dewpoint Depression Visibility Wind Speed Wind Dir Waves Ship Positions

Svartfoss

Last reported at 2017-Oct-19 11:30 UTC. Time now 2018-Feb-24 09:57 UTC.
Position N 69°38' E 018°57'.
Warning: this ship's position is months out of date.

MMSI: 304882000.

Date/timePositionNaut miles runAvg speedWind from/ knotsBaromVisibWave heightAir tempDewpointWater temp
2017-Oct-19 11:30N 69°38' E 018°57'0 0.1
2017-Oct-19 11:28N 69°38' E 018°57'0 0.0
2017-Oct-19 11:00N 69°38' E 018°57'0 0.0
2017-Oct-19 10:30N 69°38' E 018°57'0 0.0
2017-Oct-19 09:59N 69°38' E 018°57'0 0.0
2017-Oct-19 09:30N 69°38' E 018°57'0 0.0
2017-Oct-19 09:00N 69°38' E 018°57'0 0.0
2017-Oct-19 08:30N 69°38' E 018°57'0 0.0
2017-Oct-19 07:59N 69°38' E 018°57'0 1.0
2017-Oct-19 07:30N 69°38' E 018°57'613.1
2017-Oct-19 07:00N 69°44' E 019°03'714.2
2017-Oct-19 06:30N 69°48' E 019°20'714.8
2017-Oct-19 06:00N 69°55' E 019°30'815.1
2017-Oct-19 05:30N 70°01' E 019°45'815.4
2017-Oct-19 05:00N 70°05' E 020°05'4 7.6
2017-Oct-19 04:30N 70°08' E 019°59'0 0.0
2017-Oct-19 04:00N 70°08' E 019°59'0 0.0
2017-Oct-19 03:31N 70°08' E 019°59'4 7.1
2017-Oct-19 03:00N 70°09' E 020°09'814.9
2017-Oct-19 02:30N 70°14' E 020°26'815.0
2017-Oct-19 02:00N 70°17' E 020°46'815.2
2017-Oct-19 01:30N 70°20' E 021°06'815.1
2017-Oct-19 01:00N 70°24' E 021°26'815.1
2017-Oct-19 00:30N 70°26' E 021°48'815.4
2017-Oct-19 00:00N 70°27' E 022°10'715.0
2017-Oct-18 23:30N 70°29' E 022°32'714.3
2017-Oct-18 23:00N 70°31' E 022°53'713.9
2017-Oct-18 22:30N 70°35' E 023°10'713.7
2017-Oct-18 22:00N 70°38' E 023°27'4 8.5
2017-Oct-18 21:30N 70°38' E 023°40'0 0.0
2017-Oct-18 21:00N 70°38' E 023°40'0 0.0
2017-Oct-18 20:30N 70°38' E 023°40'0 0.0
2017-Oct-18 20:00N 70°38' E 023°40'1 2.3
2017-Oct-18 19:30N 70°37' E 023°38'0 1.0
2017-Oct-18 19:00N 70°38' E 023°38'0 0.0
2017-Oct-18 18:30N 70°38' E 023°38'3 6.6
2017-Oct-18 18:00N 70°41' E 023°34'815.5
2017-Oct-18 17:30N 70°47' E 023°45'815.8
2017-Oct-18 17:00N 70°52' E 024°04'815.8
2017-Oct-18 16:30N 70°58' E 024°21'714.5
2017-Oct-18 16:00N 71°01' E 024°40'815.7
2017-Oct-18 15:30N 70°59' E 025°04'815.3
2017-Oct-18 15:00N 70°58' E 025°27'1514.7
2017-Oct-18 14:00N 70°59' E 026°12'815.7
2017-Oct-18 13:30N 71°02' E 026°34'714.9
2017-Oct-18 13:00N 71°04' E 026°56'714.6
2017-Oct-18 12:29N 71°07' E 027°18'714.0
2017-Oct-18 12:00N 71°09' E 027°38'713.9
2017-Oct-18 11:30N 71°08' E 027°59'713.8
2017-Oct-18 11:00N 71°07' E 028°20'714.3
2017-Oct-18 10:30N 71°03' E 028°38'815.0
2017-Oct-18 10:00N 70°58' E 028°57'815.3
2017-Oct-18 09:30N 70°53' E 029°15'815.3
2017-Oct-18 08:59N 70°48' E 029°33'715.2
2017-Oct-18 08:30N 70°44' E 029°50'611.9
2017-Oct-18 08:00N 70°38' E 029°44'0 0.0
2017-Oct-18 07:30N 70°38' E 029°44'1 1.8
2017-Oct-18 07:01N 70°38' E 029°46'714.4
2017-Oct-18 06:30N 70°43' E 030°02'815.7
2017-Oct-18 06:00N 70°39' E 030°22'816.0
2017-Oct-18 05:30N 70°34' E 030°39'815.7
2017-Oct-18 05:00N 70°28' E 030°56'815.1
2017-Oct-18 04:30N 70°21' E 031°06'714.2
2017-Oct-18 04:00N 70°14' E 031°00'714.4
2017-Oct-18 03:31N 70°09' E 030°47'714.5
2017-Oct-18 03:01N 70°03' E 030°34'714.5
2017-Oct-18 02:30N 69°58' E 030°20'714.5
2017-Oct-18 02:00N 69°52' E 030°08'814.9
2017-Oct-18 01:30N 69°44' E 030°04'1 1.2
2017-Oct-18 01:00N 69°44' E 030°04'0 0.0
2017-Oct-18 00:30N 69°44' E 030°04'0 0.0
2017-Oct-18 00:00N 69°44' E 030°04'0 0.0
2017-Oct-17 23:30N 69°44' E 030°04'0 0.0
2017-Oct-17 23:00N 69°44' E 030°04'0 0.0
2017-Oct-17 22:30N 69°44' E 030°04'0 0.0
2017-Oct-17 22:00N 69°44' E 030°04'0 0.0
2017-Oct-17 21:29N 69°44' E 030°04'0 0.0
2017-Oct-17 21:00N 69°44' E 030°04'0 0.8
2017-Oct-17 20:29N 69°44' E 030°05'714.4
2017-Oct-17 20:00N 69°51' E 030°07'714.9
2017-Oct-17 19:30N 69°57' E 030°18'815.2
2017-Oct-17 19:00N 70°03' E 030°33'815.4
2017-Oct-17 18:30N 70°09' E 030°47'815.3
2017-Oct-17 18:00N 70°15' E 031°01'713.7
2017-Oct-17 17:30N 70°22' E 031°04'1 1.2
2017-Oct-17 17:00N 70°22' E 031°02'612.2
2017-Oct-17 16:30N 70°28' E 030°58'713.7
2017-Oct-17 16:00N 70°33' E 030°45'714.2
2017-Oct-17 15:30N 70°37' E 030°28'714.4
2017-Oct-17 15:00N 70°42' E 030°12'612.2
2017-Oct-17 14:30N 70°42' E 029°53'510.1
2017-Oct-17 14:00N 70°38' E 029°43'0 0.0
2017-Oct-17 13:30N 70°38' E 029°43'0 0.0
2017-Oct-17 13:00N 70°38' E 029°43'0 0.0
2017-Oct-17 12:30N 70°38' E 029°43'0 0.0
2017-Oct-17 12:00N 70°38' E 029°43'0 0.0
2017-Oct-17 11:30N 70°38' E 029°43'0 0.0
2017-Oct-17 11:00N 70°38' E 029°43'0 0.0
2017-Oct-17 10:30N 70°38' E 029°43'0 0.0
2017-Oct-17 10:00N 70°38' E 029°43'0 0.0
2017-Oct-17 09:30N 70°38' E 029°43'0 0.0
2017-Oct-17 09:00N 70°38' E 029°43'0 0.0
2017-Oct-17 08:30N 70°38' E 029°43'0 0.0
2017-Oct-17 08:00N 70°38' E 029°43'0 0.0
2017-Oct-17 07:30N 70°38' E 029°43'0 0.0
2017-Oct-17 07:00N 70°38' E 029°43'0 0.0
2017-Oct-17 06:31N 70°38' E 029°43'0 0.0
2017-Oct-17 05:59N 70°38' E 029°43'0 0.0
2017-Oct-17 05:30N 70°38' E 029°43'0 0.0
2017-Oct-17 05:00N 70°38' E 029°43'1 1.8
2017-Oct-17 04:30N 70°38' E 029°46'612.9
2017-Oct-17 04:00N 70°45' E 029°48'612.2
2017-Oct-17 03:30N 70°48' E 029°33'613.0
2017-Oct-17 03:00N 70°52' E 029°16'3 6.3
2017-Oct-17 02:30N 70°51' E 029°07'0 0.0
2017-Oct-17 02:00N 70°51' E 029°07'0 0.0
2017-Oct-17 01:30N 70°51' E 029°07'0 0.1
2017-Oct-17 01:00N 70°52' E 029°07'611.5
2017-Oct-17 00:30N 70°57' E 028°59'714.2
2017-Oct-17 00:00N 71°01' E 028°42'714.6
2017-Oct-16 23:30N 71°05' E 028°24'714.0
2017-Oct-16 22:59N 71°08' E 028°03'714.6
2017-Oct-16 22:30N 71°08' E 027°41'815.2
2017-Oct-16 22:00N 71°06' E 027°19'815.4
2017-Oct-16 21:30N 71°04' E 026°56'815.2
2017-Oct-16 21:00N 71°01' E 026°34'714.6
2017-Oct-16 20:30N 70°59' E 026°13'5 9.8
2017-Oct-16 20:00N 70°59' E 025°57'0 0.6
2017-Oct-16 19:30N 70°60' E 025°58'0 0.0
2017-Oct-16 19:00N 70°60' E 025°58'0 0.0
2017-Oct-16 18:30N 70°60' E 025°58'3 5.1
2017-Oct-16 18:00N 70°57' E 025°55'714.5
2017-Oct-16 17:30N 70°56' E 025°34'713.3
2017-Oct-16 17:00N 70°59' E 025°16'714.9
2017-Oct-16 16:30N 71°00' E 024°54'714.4
2017-Oct-16 16:00N 71°01' E 024°32'815.1
2017-Oct-16 15:30N 70°56' E 024°15'815.2
2017-Oct-16 15:00N 70°51' E 023°58'815.6
2017-Oct-16 14:30N 70°46' E 023°40'8 8.4
2017-Oct-16 13:30N 70°37' E 023°38'612.9
2017-Oct-16 13:00N 70°37' E 023°18'816.4
2017-Oct-16 12:30N 70°32' E 023°00'816.0
2017-Oct-16 12:01N 70°27' E 022°41'815.7
2017-Oct-16 11:30N 70°22' E 022°22'714.0
2017-Oct-16 11:00N 70°15' E 022°20'1 2.1
2017-Oct-16 10:30N 70°14' E 022°21'0 0.0
2017-Oct-16 10:00N 70°14' E 022°21'0 0.0
2017-Oct-16 09:30N 70°14' E 022°21'0 0.0
2017-Oct-16 09:00N 70°14' E 022°21'4 8.1
2017-Oct-16 08:30N 70°18' E 022°15'714.8
2017-Oct-16 08:00N 70°22' E 021°56'612.8
2017-Oct-16 07:30N 70°22' E 021°37'815.4
2017-Oct-16 07:00N 70°17' E 021°21'715.0
2017-Oct-16 06:30N 70°11' E 021°06'815.3
2017-Oct-16 06:00N 70°05' E 020°56'815.1
2017-Oct-16 05:30N 70°01' E 020°36'815.2
2017-Oct-16 05:00N 69°59' E 020°15'815.0
2017-Oct-16 04:30N 69°54' E 019°57'815.0
2017-Oct-16 04:00N 69°50' E 019°39'815.5
2017-Oct-16 03:30N 69°47' E 019°18'714.2
2017-Oct-16 03:00N 69°43' E 019°02'4 7.2
2017-Oct-16 02:30N 69°39' E 018°58'0 0.0
2017-Oct-16 02:00N 69°39' E 018°58'0 0.0
2017-Oct-16 01:30N 69°39' E 018°58'0 0.0
2017-Oct-16 01:00N 69°39' E 018°58'3 5.3
2017-Oct-16 00:30N 69°37' E 018°55'713.3
2017-Oct-16 00:00N 69°33' E 018°40'815.2
2017-Oct-15 23:29N 69°30' E 018°19'613.3
2017-Oct-15 23:00N 69°25' E 018°07'714.3
2017-Oct-15 22:30N 69°19' E 017°58'713.6
2017-Oct-15 22:00N 69°12' E 018°02'714.0
2017-Oct-15 21:30N 69°08' E 017°45'815.3
2017-Oct-15 21:00N 69°05' E 017°25'714.9
2017-Oct-15 20:30N 68°60' E 017°12'815.5
2017-Oct-15 20:00N 68°56' E 016°52'815.3
2017-Oct-15 19:30N 68°52' E 016°34'715.0
2017-Oct-15 19:00N 68°56' E 016°17'815.1
2017-Oct-15 18:30N 68°59' E 015°57'611.7
2017-Oct-15 18:00N 68°58' E 015°41'713.3
2017-Oct-15 17:29N 68°52' E 015°31'815.4
2017-Oct-15 17:00N 68°45' E 015°26'3 6.2
2017-Oct-15 16:30N 68°42' E 015°25'0 0.0
2017-Oct-15 16:00N 68°42' E 015°25'0 0.0
2017-Oct-15 15:30N 68°42' E 015°25'0 0.0
2017-Oct-15 15:00N 68°42' E 015°25'0 0.0
2017-Oct-15 14:00N 68°42' E 015°25'0 0.0
2017-Oct-15 13:30N 68°42' E 015°25'4 9.0
2017-Oct-15 13:00N 68°38' E 015°21'714.9
2017-Oct-15 12:30N 68°32' E 015°10'713.6
2017-Oct-15 12:00N 68°25' E 015°08'715.0
2017-Oct-15 11:30N 68°18' E 014°58'715.0
2017-Oct-15 11:00N 68°11' E 014°52'714.9
2017-Oct-15 10:30N 68°04' E 014°44'815.5
2017-Oct-15 10:00N 67°58' E 014°35'714.9
2017-Oct-15 09:30N 67°51' E 014°27'815.3
2017-Oct-15 09:00N 67°44' E 014°18'714.5
2017-Oct-15 08:30N 67°37' E 014°18'815.4
2017-Oct-15 08:00N 67°29' E 014°22'714.5
2017-Oct-15 07:30N 67°22' E 014°24'816.3
2017-Oct-15 07:00N 67°15' E 014°12'816.2
2017-Oct-15 06:30N 67°08' E 014°02'815.7
2017-Oct-15 06:00N 67°02' E 013°48'815.7
2017-Oct-15 05:30N 66°58' E 013°32'714.2
2017-Oct-15 05:00N 66°52' E 013°21'815.5
2017-Oct-15 04:30N 66°45' E 013°13'815.9
2017-Oct-15 04:00N 66°38' E 013°05'714.0
2017-Oct-15 03:30N 66°31' E 012°58'815.9
2017-Oct-15 03:00N 66°23' E 012°58'815.7
2017-Oct-15 02:29N 66°15' E 012°55'816.2
2017-Oct-15 02:00N 66°08' E 012°48'816.5
2017-Oct-15 01:30N 66°02' E 012°35'816.8
2017-Oct-15 01:00N 65°55' E 012°23'816.0
2017-Oct-15 00:30N 65°47' E 012°20'816.0
2017-Oct-15 00:00N 65°39' E 012°15'815.6
2017-Oct-14 23:30N 65°31' E 012°12'2 3.9
2017-Oct-14 23:00N 65°30' E 012°13'0 0.0
2017-Oct-14 22:30N 65°30' E 012°13'0 0.0
2017-Oct-14 22:00N 65°30' E 012°13'1 2.2
2017-Oct-14 21:30N 65°31' E 012°14'510.9
2017-Oct-14 21:00N 65°35' E 012°20'815.3
2017-Oct-14 20:29N 65°28' E 012°29'2 3.7
2017-Oct-14 20:00N 65°27' E 012°27'0 0.0
2017-Oct-14 19:30N 65°27' E 012°27'0 0.0
2017-Oct-14 19:00N 65°27' E 012°27'0 0.1
2017-Oct-14 18:29N 65°27' E 012°27'2 3.3
2017-Oct-14 18:00N 65°28' E 012°28'714.6
2017-Oct-14 17:30N 65°35' E 012°21'713.1
2017-Oct-14 17:00N 65°41' E 012°16'713.8
2017-Oct-14 16:30N 65°48' E 012°20'713.5
2017-Oct-14 16:00N 65°54' E 012°22'713.0
2017-Oct-14 15:30N 66°00' E 012°31'713.5
2017-Oct-14 15:00N 66°05' E 012°42'713.6
2017-Oct-14 14:30N 66°09' E 012°56'714.7
2017-Oct-14 14:00N 66°12' E 013°12'714.4
2017-Oct-14 13:30N 66°14' E 013°28'714.6
2017-Oct-14 13:00N 66°15' E 013°47'714.7
2017-Oct-14 12:30N 66°18' E 014°04'2 3.4
2017-Oct-14 12:00N 66°19' E 014°07'0 0.0
2017-Oct-14 11:30N 66°19' E 014°07'0 0.0
2017-Oct-14 11:00N 66°19' E 014°07'0 0.0
2017-Oct-14 10:30N 66°19' E 014°07'0 0.8
2017-Oct-14 10:00N 66°19' E 014°06'714.3
2017-Oct-14 09:30N 66°15' E 013°51'714.5
2017-Oct-14 09:00N 66°15' E 013°33'713.9
2017-Oct-14 08:30N 66°13' E 013°16'714.2
2017-Oct-14 08:00N 66°10' E 013°00'715.2
2017-Oct-14 07:31N 66°06' E 012°44'816.2
2017-Oct-14 07:00N 65°60' E 012°31'816.0
2017-Oct-14 06:30N 65°53' E 012°22'816.0
2017-Oct-14 06:00N 65°45' E 012°18'816.0
2017-Oct-14 05:30N 65°37' E 012°16'815.5
2017-Oct-14 05:00N 65°30' E 012°26'4 7.5
2017-Oct-14 04:28N 65°27' E 012°27'0 0.1
2017-Oct-14 03:59N 65°27' E 012°27'0 0.2
2017-Oct-14 03:30N 65°27' E 012°27'0 0.1
2017-Oct-14 02:59N 65°27' E 012°27'0 0.1
2017-Oct-14 02:29N 65°27' E 012°27'2 3.7
2017-Oct-14 02:00N 65°28' E 012°28'714.2
2017-Oct-14 01:30N 65°35' E 012°21'612.8
2017-Oct-14 01:00N 65°41' E 012°16'714.1
2017-Oct-14 00:30N 65°48' E 012°20'714.2
2017-Oct-14 00:00N 65°55' E 012°22'714.0
2017-Oct-13 23:30N 66°01' E 012°32'714.4
2017-Oct-13 23:00N 66°06' E 012°43'714.6
2017-Oct-13 22:30N 66°10' E 012°59'815.6
2017-Oct-13 22:00N 66°13' E 013°16'714.4
2017-Oct-13 21:30N 66°15' E 013°34'815.1
2017-Oct-13 20:59N 66°16' E 013°53'713.6
2017-Oct-13 20:30N 66°19' E 014°07'0 0.0
2017-Oct-13 20:00N 66°19' E 014°07'0 0.0
2017-Oct-13 19:30N 66°19' E 014°07'0 0.0
2017-Oct-13 19:00N 66°19' E 014°07'0 0.0
2017-Oct-13 18:30N 66°19' E 014°07'0 0.0
2017-Oct-13 18:00N 66°19' E 014°07'0 0.0
2017-Oct-13 17:30N 66°19' E 014°07'612.2
2017-Oct-13 17:00N 66°16' E 013°54'714.4
2017-Oct-13 16:29N 66°14' E 013°36'713.8
2017-Oct-13 16:00N 66°14' E 013°20'713.8
2017-Oct-13 15:30N 66°10' E 013°06'714.4
2017-Oct-13 15:00N 66°08' E 012°49'815.0
2017-Oct-13 14:30N 66°02' E 012°36'815.4
2017-Oct-13 14:00N 65°56' E 012°25'815.4
2017-Oct-13 13:30N 65°49' E 012°21'815.6
2017-Oct-13 13:00N 65°41' E 012°16'815.7
2017-Oct-13 12:29N 65°33' E 012°13'4 7.7
2017-Oct-13 12:00N 65°30' E 012°13'0 0.0
2017-Oct-13 11:30N 65°30' E 012°13'1 2.5
2017-Oct-13 11:00N 65°28' E 012°12'611.7
2017-Oct-13 10:30N 65°23' E 012°06'815.8
2017-Oct-13 09:59N 65°16' E 011°57'815.7
2017-Oct-13 09:30N 65°09' E 011°50'815.8
2017-Oct-13 09:00N 65°02' E 011°42'815.2
2017-Oct-13 08:30N 64°57' E 011°29'815.4
2017-Oct-13 08:00N 64°52' E 011°15'0 0.7
2017-Oct-13 07:30N 64°52' E 011°14'0 0.0
2017-Oct-13 07:00N 64°52' E 011°14'0 0.0
2017-Oct-13 06:30N 64°52' E 011°14'4 7.3
2017-Oct-13 06:00N 64°49' E 011°09'71 5.2
2017-Oct-12 16:24N 63°49' E 009°41'0 0.1
2017-Oct-12 16:00N 63°49' E 009°41'4 7.9
2017-Oct-12 15:29N 63°47' E 009°33'815.6
2017-Oct-12 15:00N 63°39' E 009°29'815.1
2017-Oct-12 14:30N 63°33' E 009°19'817.3
2017-Oct-12 14:00N 63°29' E 009°02'816.6
2017-Oct-12 13:30N 63°26' E 008°45'816.3
2017-Oct-12 13:00N 63°23' E 008°28'816.4
2017-Oct-12 12:30N 63°18' E 008°14'816.6
2017-Oct-12 12:00N 63°14' E 007°58'816.1
2017-Oct-12 11:30N 63°09' E 007°43'815.6
2017-Oct-12 11:00N 63°05' E 007°28'815.1
2017-Oct-12 10:30N 63°02' E 007°13'815.0
2017-Oct-12 10:00N 62°59' E 006°58'815.1
2017-Oct-12 09:30N 62°54' E 006°46'815.7
2017-Oct-12 09:00N 62°48' E 006°36'815.7
2017-Oct-12 08:30N 62°41' E 006°27'815.3
2017-Oct-12 08:00N 62°36' E 006°15'713.6
2017-Oct-12 07:30N 62°29' E 006°10'612.9
2017-Oct-12 07:00N 62°30' E 006°24'0 0.3
2017-Oct-12 06:30N 62°30' E 006°24'0 0.0
2017-Oct-12 06:00N 62°30' E 006°24'0 0.0
2017-Oct-12 05:30N 62°30' E 006°24'2 4.6
2017-Oct-12 05:00N 62°28' E 006°21'0 0.0
2017-Oct-12 04:30N 62°28' E 006°21'0 0.0
2017-Oct-12 04:00N 62°28' E 006°21'1 2.7
2017-Oct-12 03:29N 62°29' E 006°18'0 0.0
2017-Oct-12 03:00N 62°29' E 006°18'0 0.0
2017-Oct-12 02:30N 62°29' E 006°18'0 0.0
2017-Oct-12 02:00N 62°29' E 006°18'3 6.7
2017-Oct-12 01:30N 62°29' E 006°11'0 0.0
2017-Oct-12 01:00N 62°29' E 006°11'0 0.0
2017-Oct-12 00:30N 62°29' E 006°11'0 0.0
2017-Oct-12 00:00N 62°29' E 006°11'3 6.6
2017-Oct-11 23:30N 62°28' E 006°05'2 3.6
2017-Oct-11 23:00N 62°28' E 006°08'0 0.0
2017-Oct-11 22:30N 62°28' E 006°08'1 2.4
2017-Oct-11 22:00N 62°27' E 006°11'815.4
2017-Oct-11 21:30N 62°26' E 005°54'714.6
2017-Oct-11 21:00N 62°20' E 005°45'714.0
2017-Oct-11 20:29N 62°18' E 005°30'715.4
2017-Oct-11 20:00N 62°15' E 005°15'713.9
2017-Oct-11 19:30N 62°11' E 005°03'814.8
2017-Oct-11 19:00N 62°04' E 005°08'5 9.8
2017-Oct-11 18:30N 61°59' E 005°08'0 0.0
2017-Oct-11 18:00N 61°59' E 005°08'0 0.4
2017-Oct-11 17:30N 61°59' E 005°08'2 4.7
2017-Oct-11 17:00N 61°56' E 005°08'159 9.4
2017-Oct-11 00:00N 59°17' E 005°20'714.9
2017-Oct-10 23:30N 59°10' E 005°21'816.7
2017-Oct-10 23:01N 59°02' E 005°20'917.1
2017-Oct-10 22:31N 58°53' E 005°20'917.7
2017-Oct-10 22:01N 58°44' E 005°19'917.1
2017-Oct-10 21:31N 58°36' E 005°18'816.4
2017-Oct-10 21:00N 58°27' E 005°17'32014.6
2017-Oct-09 23:05N 53°09' E 004°32'414.5
2017-Oct-09 22:48N 53°05' E 004°30'414.4
2017-Oct-09 22:30N 53°00' E 004°29'714.6
2017-Oct-09 22:00N 52°53' E 004°30'714.8
2017-Oct-09 21:30N 52°46' E 004°30'714.8
2017-Oct-09 21:00N 52°38' E 004°30'815.2
2017-Oct-09 20:30N 52°31' E 004°30'5 9.0
2017-Oct-09 20:00N 52°28' E 004°35'1 1.3
2017-Oct-09 19:30N 52°28' E 004°36'2 4.2
2017-Oct-09 19:00N 52°28' E 004°40'0 0.4
2017-Oct-09 18:30N 52°28' E 004°40'0 0.0
2017-Oct-09 17:59N 52°28' E 004°40'0 0.0
2017-Oct-09 17:26N 52°28' E 004°40'0 0.0
2017-Oct-09 16:59N 52°28' E 004°40'0 0.0
2017-Oct-09 16:29N 52°28' E 004°40'0 0.0
2017-Oct-09 15:59N 52°28' E 004°40'0 0.0
2017-Oct-09 15:26N 52°28' E 004°40'0 0.0
2017-Oct-09 14:59N 52°28' E 004°40'0 0.0
2017-Oct-09 14:29N 52°28' E 004°40'0 0.0
2017-Oct-09 13:56N 52°28' E 004°40'0 0.0
2017-Oct-09 13:26N 52°28' E 004°40'0 0.0
2017-Oct-09 12:59N 52°28' E 004°40'0 0.0
2017-Oct-09 12:29N 52°28' E 004°40'0 0.0
2017-Oct-09 11:59N 52°28' E 004°40'  

Dump ship's entire track history